CheckWX is a tool to help pilots better visualize weather data.  It is not intended as a substitute for an official pre-flight weather briefing.

00:47:43 UTC

KGCM METAR
Claremore Regional Airport
Claremore, Oklahoma, USA
Current

33 mins ago

KGCM 190015Z AUTO 17003KT 10SM CLR 15/10 A2974 RMK AO2
Observed
Oct-19 @ 00:15 UTC
Wind
  • 170° at 3 KTS
Visibility
10 SM
Flight Rules
VFR
Cloud Levels
  • Clear skies
Temperature
15°C / 59°F
Dewpoint
10°C / 50°F
Humidity
72%
Altimeter
29.74" Hg
Pressure
1007.12 hPa
Previous

53 mins ago

KGCM 182355Z AUTO 15005KT 10SM CLR 16/10 A2973 RMK AO2
Observed
Oct-18 @ 23:55 UTC
Wind
  • 150° at 5 KTS
Visibility
10 SM
Flight Rules
VFR
Cloud Levels
  • Clear skies
Temperature
16°C / 61°F
Dewpoint
10°C / 50°F
Humidity
68%
Altimeter
29.73" Hg
Pressure
1006.82 hPa
Previous

1 hour ago

KGCM 182335Z AUTO 15007KT 10SM CLR 18/09 A2973 RMK AO2
Observed
Oct-18 @ 23:35 UTC
Wind
  • 150° at 7 KTS
Visibility
10 SM
Flight Rules
VFR
Cloud Levels
  • Clear skies
Temperature
18°C / 64°F
Dewpoint
C / 48°F
Humidity
56%
Altimeter
29.73" Hg
Pressure
1006.82 hPa